Time;durP1;ratioP1;P1;durP2;ratioP2;P2;SDS_P1;SDS_P2;PMS_P1;PMS_P2;Temp;Humidity;BMP_temperature;BMP_pressure;BME280_temperature;BME280_humidity;BME280_pressure;Samples;Min_cycle;Max_cycle;Signal;HPM_P1;HPM_P2
2021/11/23 00:01:17;;;;;;;11.18;6.85;;;-0.40;99.90;;;;;;5060128;28;20079;-91
2021/11/23 00:03:45;;;;;;;9.38;6.95;;;-0.30;99.90;;;;;;5058852;28;20044;-91
2021/11/23 00:06:12;;;;;;;8.98;6.35;;;-0.30;99.90;;;;;;5058866;28;20094;-90
2021/11/23 00:08:40;;;;;;;7.07;5.85;;;-0.30;99.90;;;;;;5062587;28;20116;-92
2021/11/23 00:11:07;;;;;;;8.40;7.00;;;-0.30;99.90;;;;;;5062752;28;20413;-91
2021/11/23 00:13:34;;;;;;;10.60;6.40;;;-0.40;99.90;;;;;;5058150;28;20135;-91
2021/11/23 00:16:01;;;;;;;11.35;6.95;;;-0.40;99.90;;;;;;5058615;28;20058;-91
2021/11/23 00:18:28;;;;;;;9.40;6.68;;;-0.50;99.90;;;;;;5058169;28;20131;-91
2021/11/23 00:20:54;;;;;;;9.65;6.75;;;-0.50;99.90;;;;;;5074946;28;20052;-91
2021/11/23 00:23:24;;;;;;;9.05;6.78;;;-0.50;99.90;;;;;;5076071;28;20486;-91
2021/11/23 00:25:51;;;;;;;12.43;7.07;;;-0.50;99.90;;;;;;5059337;28;20131;-91
2021/11/23 00:28:18;;;;;;;10.30;6.30;;;-0.50;99.90;;;;;;5078909;28;20135;-91
2021/11/23 00:30:46;;;;;;;14.05;7.85;;;-0.60;99.90;;;;;;5087348;28;20056;-91
2021/11/23 00:33:13;;;;;;;11.15;7.35;;;-0.60;99.90;;;;;;5076895;28;20583;-91
2021/11/23 00:35:40;;;;;;;10.95;7.30;;;-0.60;99.90;;;;;;5075001;28;20041;-92
2021/11/23 00:38:11;;;;;;;11.85;6.80;;;-0.60;99.90;;;;;;5075097;28;20139;-91
2021/11/23 00:40:38;;;;;;;10.88;7.15;;;-0.60;99.90;;;;;;5074571;28;20139;-91
2021/11/23 00:43:05;;;;;;;11.68;7.38;;;-0.60;99.90;;;;;;5074612;28;20044;-91
2021/11/23 00:45:33;;;;;;;11.23;7.65;;;-0.70;99.90;;;;;;5073759;28;20048;-91
2021/11/23 00:48:01;;;;;;;11.85;7.25;;;-0.60;99.90;;;;;;5074539;28;20121;-91
2021/11/23 00:50:29;;;;;;;10.15;7.35;;;-0.60;99.90;;;;;;5074522;28;20139;-91
2021/11/23 00:52:56;;;;;;;12.23;7.53;;;-0.70;99.90;;;;;;5074116;28;20510;-91
2021/11/23 00:55:23;;;;;;;12.85;8.20;;;-0.60;99.90;;;;;;5074323;28;20136;-91
2021/11/23 00:57:49;;;;;;;14.65;8.30;;;-0.70;99.90;;;;;;5074355;28;20052;-91
2021/11/23 01:00:16;;;;;;;11.85;8.10;;;-0.60;99.90;;;;;;5074334;28;20131;-91
2021/11/23 01:02:43;;;;;;;12.43;7.70;;;-0.70;99.90;;;;;;5077435;28;20072;-91
2021/11/23 01:05:10;;;;;;;15.95;8.52;;;-0.70;99.90;;;;;;5074118;28;20058;-91
2021/11/23 01:07:37;;;;;;;13.35;7.60;;;-0.70;99.90;;;;;;5074071;28;20087;-92
2021/11/23 01:10:06;;;;;;;11.82;8.20;;;-0.70;99.90;;;;;;5074482;28;20155;-91
2021/11/23 01:12:35;;;;;;;12.95;7.88;;;-0.70;99.90;;;;;;5074251;28;20099;-91
2021/11/23 01:15:05;;;;;;;12.48;8.32;;;-0.70;99.90;;;;;;5074133;28;20488;-92
2021/11/23 01:17:31;;;;;;;15.77;8.77;;;-0.70;99.90;;;;;;5071442;28;20064;-92
2021/11/23 01:19:58;;;;;;;15.05;8.50;;;-0.80;99.90;;;;;;5057117;28;20139;-92
2021/11/23 01:22:26;;;;;;;13.95;8.95;;;-0.80;99.90;;;;;;5057213;28;20127;-92
2021/11/23 01:24:53;;;;;;;13.82;8.63;;;-0.80;99.90;;;;;;5057209;28;20127;-91
2021/11/23 01:27:20;;;;;;;13.50;8.60;;;-0.80;99.90;;;;;;5057356;28;20055;-91
2021/11/23 01:29:47;;;;;;;15.38;9.55;;;-0.80;99.90;;;;;;5057172;28;20051;-91
2021/11/23 01:32:14;;;;;;;17.75;10.05;;;-0.90;99.90;;;;;;5057492;28;20052;-91
2021/11/23 01:34:40;;;;;;;15.13;9.32;;;-0.90;99.90;;;;;;5057033;28;20143;-92
2021/11/23 01:37:07;;;;;;;15.95;9.80;;;-0.80;99.90;;;;;;5056828;28;20485;-92
2021/11/23 01:39:34;;;;;;;16.85;10.20;;;-0.80;99.90;;;;;;5057346;28;20174;-91
2021/11/23 01:42:01;;;;;;;15.43;8.93;;;-0.80;99.90;;;;;;5057440;28;20143;-92
2021/11/23 01:44:28;;;;;;;15.80;9.35;;;-0.80;99.90;;;;;;5062721;28;20504;-91
2021/11/23 01:46:55;;;;;;;13.65;8.52;;;-0.80;99.90;;;;;;5067916;28;20102;-91
2021/11/23 01:49:22;;;;;;;12.88;8.80;;;-0.80;99.90;;;;;;5057409;28;20056;-91
2021/11/23 01:51:49;;;;;;;13.90;8.55;;;-0.80;99.90;;;;;;5056647;28;20053;-92
2021/11/23 01:54:16;;;;;;;16.08;8.30;;;-0.80;99.90;;;;;;5056927;28;20131;-91
2021/11/23 01:56:43;;;;;;;11.32;7.55;;;-0.90;99.90;;;;;;5056555;28;20059;-91
2021/11/23 01:59:10;;;;;;;10.30;6.90;;;-0.90;99.90;;;;;;5056879;28;20064;-92
2021/11/23 02:01:37;;;;;;;10.15;7.07;;;-0.90;99.90;;;;;;5056684;28;20048;-92
2021/11/23 02:04:04;;;;;;;12.23;7.30;;;-0.90;99.90;;;;;;5056886;28;20064;-92
2021/11/23 02:06:32;;;;;;;13.90;7.30;;;-0.90;99.90;;;;;;5056677;28;20059;-92
2021/11/23 02:09:00;;;;;;;12.90;7.82;;;-0.90;99.90;;;;;;5056607;28;20052;-91
2021/11/23 02:11:26;;;;;;;12.35;7.78;;;-0.90;99.90;;;;;;5056955;28;20135;-92
2021/11/23 02:13:54;;;;;;;10.25;7.32;;;-0.90;99.90;;;;;;5056473;28;20048;-92
2021/11/23 02:16:21;;;;;;;9.65;6.72;;;-0.90;99.90;;;;;;5056317;28;20136;-92
2021/11/23 02:18:49;;;;;;;10.43;7.15;;;-1.00;99.90;;;;;;5073074;28;20143;-92
2021/11/23 02:21:16;;;;;;;10.27;7.07;;;-1.00;99.90;;;;;;5056509;28;20106;-91
2021/11/23 02:23:43;;;;;;;8.70;6.22;;;-0.90;99.90;;;;;;5056672;28;20063;-91
2021/11/23 02:26:10;;;;;;;7.22;6.03;;;-0.90;99.90;;;;;;5056546;28;20481;-92
2021/11/23 02:28:37;;;;;;;12.25;6.63;;;-0.90;99.90;;;;;;5056683;28;20544;-92
2021/11/23 02:31:06;;;;;;;8.88;6.00;;;-1.00;99.90;;;;;;5056747;28;20481;-92
2021/11/23 02:33:33;;;;;;;8.38;6.45;;;-1.00;99.90;;;;;;5070275;28;20090;-91
2021/11/23 02:36:03;;;;;;;11.98;7.00;;;-1.00;99.90;;;;;;5060166;28;20048;-91
2021/11/23 02:38:32;;;;;;;9.30;6.55;;;-1.00;99.90;;;;;;5056391;28;20132;-92
2021/11/23 02:41:01;;;;;;;10.13;6.55;;;-1.00;99.90;;;;;;5056256;28;20050;-92
2021/11/23 02:43:28;;;;;;;8.15;5.72;;;-1.00;99.90;;;;;;5056129;28;20045;-92
2021/11/23 02:45:55;;;;;;;9.02;7.10;;;-1.00;99.90;;;;;;5056097;28;20131;-92
2021/11/23 02:48:21;;;;;;;10.38;7.15;;;-1.00;99.90;;;;;;5056222;28;20539;-92
2021/11/23 02:50:57;;;;;;;13.02;7.15;;;-1.00;99.90;;;;;;5056310;28;20535;-92
2021/11/23 02:53:24;;;;;;;9.55;6.80;;;-1.10;99.90;;;;;;5056183;28;20052;-91
2021/11/23 02:55:51;;;;;;;13.15;7.28;;;-1.10;99.90;;;;;;5056177;28;20071;-92
2021/11/23 02:58:18;;;;;;;10.15;6.97;;;-1.20;99.90;;;;;;5056300;28;20049;-92
2021/11/23 03:00:44;;;;;;;13.15;6.95;;;-1.20;99.90;;;;;;5061393;28;20053;-92
2021/11/23 03:03:11;;;;;;;8.75;6.38;;;-1.20;99.90;;;;;;5073885;28;20053;-92
2021/11/23 03:05:40;;;;;;;7.32;5.90;;;-1.20;99.90;;;;;;5056344;28;20144;-92
2021/11/23 03:08:07;;;;;;;8.85;6.68;;;-1.20;99.90;;;;;;5057164;28;20503;-91
2021/11/23 03:10:34;;;;;;;10.77;6.90;;;-1.30;99.90;;;;;;5059637;28;20064;-91
2021/11/23 03:13:01;;;;;;;12.32;6.95;;;-1.40;99.90;;;;;;5060365;28;20045;-92
2021/11/23 03:15:29;;;;;;;10.48;6.30;;;-1.40;99.90;;;;;;5059950;28;20076;-92
2021/11/23 03:17:56;;;;;;;11.45;6.20;;;-1.40;99.90;;;;;;5059072;28;20062;-92
2021/11/23 03:20:24;;;;;;;6.68;5.07;;;-1.40;99.90;;;;;;5059486;28;20127;-92
2021/11/23 03:22:53;;;;;;;9.32;5.70;;;-1.50;99.90;;;;;;5059540;28;20062;-92
2021/11/23 03:25:20;;;;;;;11.10;5.65;;;-1.50;99.90;;;;;;5059221;28;20138;-92
2021/11/23 03:27:46;;;;;;;7.22;5.65;;;-1.60;99.90;;;;;;5059560;28;20048;-92
2021/11/23 03:30:17;;;;;;;7.22;5.00;;;-1.60;99.90;;;;;;5059766;28;20049;-92
2021/11/23 03:32:44;;;;;;;6.68;5.30;;;-1.70;99.90;;;;;;5059525;28;20044;-92
2021/11/23 03:35:12;;;;;;;6.55;5.28;;;-1.80;99.90;;;;;;5059395;28;20139;-92
2021/11/23 03:37:39;;;;;;;6.68;4.93;;;-1.80;99.90;;;;;;5059126;28;20048;-92
2021/11/23 03:40:07;;;;;;;9.75;4.75;;;-1.90;99.90;;;;;;5059228;28;20475;-92
2021/11/23 03:42:34;;;;;;;6.22;5.00;;;-2.00;99.90;;;;;;5059208;28;20156;-93
2021/11/23 03:45:01;;;;;;;5.70;4.63;;;-2.10;99.90;;;;;;5059428;28;20552;-92
2021/11/23 03:47:30;;;;;;;5.32;4.75;;;-2.10;99.90;;;;;;5059341;28;20052;-92
2021/11/23 03:49:58;;;;;;;7.28;5.07;;;-2.20;99.90;;;;;;5059648;28;20135;-93
2021/11/23 03:52:26;;;;;;;6.40;4.82;;;-2.30;99.90;;;;;;5059384;28;20049;-93
2021/11/23 03:54:54;;;;;;;7.88;5.15;;;-2.40;99.90;;;;;;5059361;28;20502;-93
2021/11/23 03:57:21;;;;;;;6.50;5.13;;;-2.50;99.90;;;;;;5058983;28;20644;-92
2021/11/23 03:59:49;;;;;;;7.72;5.10;;;-2.60;99.90;;;;;;5059346;28;20135;-93
2021/11/23 04:02:18;;;;;;;6.28;4.93;;;-2.60;99.90;;;;;;5059294;28;20060;-92
2021/11/23 04:04:45;;;;;;;9.93;6.35;;;-2.70;99.90;;;;;;5059129;28;20055;-92
2021/11/23 04:07:12;;;;;;;6.18;5.03;;;-2.60;99.90;;;;;;5058916;28;20147;-93
2021/11/23 04:09:40;;;;;;;9.75;5.68;;;-2.60;99.90;;;;;;5059209;28;20385;-92
2021/11/23 04:12:08;;;;;;;6.95;5.20;;;-2.60;99.90;;;;;;5059499;28;20504;-93
2021/11/23 04:14:36;;;;;;;10.63;5.53;;;-2.60;99.90;;;;;;5062141;28;20504;-93
2021/11/23 04:17:06;;;;;;;8.02;6.00;;;-2.60;99.90;;;;;;5064766;28;20062;-93
2021/11/23 04:19:34;;;;;;;11.60;5.80;;;-2.60;99.90;;;;;;5073867;28;20417;-93
2021/11/23 04:22:02;;;;;;;10.02;6.30;;;-2.70;99.90;;;;;;5058844;28;20512;-92
2021/11/23 04:24:29;;;;;;;5.85;4.95;;;-2.60;99.90;;;;;;5059000;28;20060;-93
2021/11/23 04:26:56;;;;;;;8.55;5.63;;;-2.50;99.90;;;;;;5058617;28;20147;-93
2021/11/23 04:29:23;;;;;;;9.10;5.68;;;-2.40;99.90;;;;;;5058237;28;20488;-93
2021/11/23 04:31:50;;;;;;;10.77;6.38;;;-2.30;99.90;;;;;;5058535;28;20048;-92
2021/11/23 04:34:18;;;;;;;11.10;6.05;;;-2.20;99.90;;;;;;5058574;28;20408;-93
2021/11/23 04:36:44;;;;;;;11.55;6.38;;;-2.30;99.90;;;;;;5060210;28;20135;-93
2021/11/23 04:39:12;;;;;;;9.20;6.43;;;-2.10;99.90;;;;;;5060798;28;20127;-93
2021/11/23 04:41:40;;;;;;;11.45;5.80;;;-2.10;99.90;;;;;;5043429;28;20056;-92
2021/11/23 04:44:07;;;;;;;8.05;6.07;;;-2.00;99.90;;;;;;5058082;28;20048;-93
2021/11/23 04:46:34;;;;;;;8.52;5.82;;;-1.90;99.90;;;;;;5058203;28;20055;-93
2021/11/23 04:49:01;;;;;;;8.77;5.53;;;-1.90;99.90;;;;;;5058485;28;20052;-92
2021/11/23 04:51:29;;;;;;;10.45;5.65;;;-1.80;99.90;;;;;;5058703;28;20080;-93
2021/11/23 04:53:55;;;;;;;7.05;5.90;;;-1.80;99.90;;;;;;5058143;28;20116;-92
2021/11/23 04:56:22;;;;;;;12.48;6.28;;;-1.70;99.90;;;;;;5062971;28;20052;-93
2021/11/23 04:58:49;;;;;;;7.05;5.50;;;-1.70;99.90;;;;;;5080541;28;20048;-92
2021/11/23 05:01:16;;;;;;;8.73;6.07;;;-1.70;99.90;;;;;;5060233;28;20052;-92
2021/11/23 05:03:43;;;;;;;10.77;6.25;;;-1.60;99.90;;;;;;5059046;28;20036;-92
2021/11/23 05:06:10;;;;;;;9.25;5.65;;;-1.60;99.90;;;;;;5058576;28;20488;-93
2021/11/23 05:08:37;;;;;;;16.55;6.57;;;-1.60;99.90;;;;;;5057779;28;20072;-92
2021/11/23 05:11:04;;;;;;;10.30;5.60;;;-1.60;99.90;;;;;;5057838;28;20132;-92
2021/11/23 05:13:30;;;;;;;10.25;7.35;;;-1.60;99.90;;;;;;5057411;28;20402;-92
2021/11/23 05:15:57;;;;;;;11.85;7.13;;;-1.60;99.90;;;;;;5057700;28;20083;-92
2021/11/23 05:18:24;;;;;;;10.43;6.80;;;-1.60;99.90;;;;;;5057365;28;20135;-92
2021/11/23 05:20:51;;;;;;;9.65;7.05;;;-1.60;99.90;;;;;;5057935;28;20044;-92
2021/11/23 05:23:17;;;;;;;8.27;5.75;;;-1.60;99.90;;;;;;5057461;28;20052;-92
2021/11/23 05:25:44;;;;;;;9.30;5.32;;;-1.60;99.90;;;;;;5057293;28;20045;-92
2021/11/23 05:28:11;;;;;;;8.90;6.35;;;-1.80;99.90;;;;;;5057461;28;20475;-93
2021/11/23 05:30:38;;;;;;;7.55;5.88;;;-1.80;99.90;;;;;;5057717;28;20132;-92
2021/11/23 05:33:05;;;;;;;6.13;5.28;;;-2.00;99.90;;;;;;5072373;28;20071;-92
2021/11/23 05:35:32;;;;;;;11.05;6.30;;;-2.10;99.90;;;;;;5076294;28;20472;-92
2021/11/23 05:37:59;;;;;;;10.27;5.65;;;-2.20;99.90;;;;;;5057373;28;20506;-93
2021/11/23 05:40:26;;;;;;;10.55;5.78;;;-2.30;99.90;;;;;;5057315;28;20132;-93
2021/11/23 05:42:52;;;;;;;9.15;5.40;;;-2.40;99.90;;;;;;5057305;28;20143;-92
2021/11/23 05:45:19;;;;;;;8.30;6.00;;;-2.50;99.90;;;;;;5056962;28;20055;-92
2021/11/23 05:47:49;;;;;;;9.27;6.38;;;-2.50;99.90;;;;;;5057996;28;20083;-93
2021/11/23 05:50:16;;;;;;;9.25;5.75;;;-2.50;99.90;;;;;;5056927;28;20159;-93
2021/11/23 05:52:43;;;;;;;8.55;5.35;;;-2.60;99.90;;;;;;5057144;28;20140;-92
2021/11/23 05:55:10;;;;;;;11.48;6.50;;;-2.70;99.90;;;;;;5057374;28;20053;-93
2021/11/23 05:57:37;;;;;;;9.93;5.72;;;-2.80;99.90;;;;;;5056872;28;20139;-92
2021/11/23 06:00:04;;;;;;;12.18;6.75;;;-2.80;99.90;;;;;;5057373;28;20139;-93
2021/11/23 06:02:32;;;;;;;10.48;6.72;;;-2.90;99.90;;;;;;5057346;28;20048;-93
2021/11/23 06:05:00;;;;;;;11.85;7.28;;;-2.90;99.90;;;;;;5073780;28;20052;-92
2021/11/23 06:07:27;;;;;;;12.98;7.40;;;-2.90;99.90;;;;;;5057583;28;20059;-93
2021/11/23 06:09:54;;;;;;;22.70;7.93;;;-2.90;99.90;;;;;;5057316;28;20062;-93
2021/11/23 06:12:21;;;;;;;23.90;9.73;;;-2.90;99.90;;;;;;5057851;28;20495;-93
2021/11/23 06:14:48;;;;;;;22.25;10.30;;;-3.00;99.90;;;;;;5057766;28;20047;-93
2021/11/23 06:17:14;;;;;;;19.67;9.48;;;-3.00;99.90;;;;;;5074435;28;20097;-93
2021/11/23 06:19:41;;;;;;;16.25;8.02;;;-3.00;99.90;;;;;;5056924;28;20074;-93
2021/11/23 06:22:09;;;;;;;18.48;9.20;;;-3.00;99.90;;;;;;5057333;28;20052;-93
2021/11/23 06:24:37;;;;;;;18.38;9.60;;;-3.20;99.90;;;;;;5057204;28;20098;-93
2021/11/23 06:27:04;;;;;;;24.15;13.75;;;-3.20;99.90;;;;;;5057044;28;20555;-93
2021/11/23 06:29:31;;;;;;;16.65;10.00;;;-3.20;99.90;;;;;;5056944;28;20052;-93
2021/11/23 06:31:58;;;;;;;19.27;8.70;;;-3.20;99.90;;;;;;5057068;28;20052;-93
2021/11/23 06:34:25;;;;;;;17.05;9.65;;;-3.20;99.90;;;;;;5074559;28;20404;-93
2021/11/23 06:36:52;;;;;;;16.13;9.13;;;-3.20;99.90;;;;;;5056994;28;20051;-93
2021/11/23 06:39:19;;;;;;;21.20;14.30;;;-3.30;99.90;;;;;;5056696;28;20057;-93
2021/11/23 06:41:46;;;;;;;16.52;9.27;;;-3.20;99.90;;;;;;5073774;28;20127;-93
2021/11/23 06:44:13;;;;;;;16.48;9.13;;;-3.30;99.90;;;;;;5060612;28;20052;-93
2021/11/23 06:46:40;;;;;;;13.55;7.82;;;-3.30;99.90;;;;;;5062093;28;20060;-93
2021/11/23 06:49:07;;;;;;;16.08;8.10;;;-3.30;99.90;;;;;;5078594;28;20044;-93
2021/11/23 06:51:34;;;;;;;14.57;8.10;;;-3.30;99.90;;;;;;5077392;28;20055;-93
2021/11/23 06:54:00;;;;;;;15.32;7.85;;;-3.30;99.90;;;;;;5062489;28;20497;-93
2021/11/23 06:56:27;;;;;;;13.60;7.53;;;-3.40;99.90;;;;;;5062383;28;20080;-93
2021/11/23 06:58:56;;;;;;;12.43;7.07;;;-3.40;99.90;;;;;;5062734;28;20135;-94
2021/11/23 07:01:24;;;;;;;15.32;7.85;;;-3.30;99.90;;;;;;5062371;28;20117;-93
2021/11/23 07:03:51;;;;;;;13.38;7.18;;;-3.40;99.90;;;;;;5080769;28;20049;-94
2021/11/23 07:06:18;;;;;;;12.50;7.43;;;-3.30;99.90;;;;;;5063644;28;20084;-94
2021/11/23 07:08:45;;;;;;;12.98;7.57;;;-3.30;99.90;;;;;;5062417;28;20044;-94
2021/11/23 07:11:13;;;;;;;14.45;8.73;;;-3.30;99.90;;;;;;5062722;28;20068;-93
2021/11/23 07:13:40;;;;;;;11.10;7.13;;;-3.20;99.90;;;;;;5079978;28;20543;-93
2021/11/23 07:16:07;;;;;;;18.08;7.90;;;-3.20;99.90;;;;;;5062377;28;20139;-93
2021/11/23 07:18:39;;;;;;;15.65;9.13;;;-3.10;99.90;;;;;;5062495;28;20040;-93
2021/11/23 07:21:05;;;;;;;15.98;9.18;;;-3.00;99.90;;;;;;5062107;28;20083;-93
2021/11/23 07:23:53;;;;;;;12.80;9.27;;;-3.00;99.90;;;;;;5100804;28;20032;-93
2021/11/23 07:26:20;;;;;;;12.80;8.07;;;-2.90;99.90;;;;;;5084418;28;20056;-93
2021/11/23 07:28:47;;;;;;;16.60;8.38;;;-2.90;99.90;;;;;;5061035;28;20109;-93
2021/11/23 07:31:14;;;;;;;15.27;7.93;;;-3.00;99.90;;;;;;5060694;28;20135;-94
2021/11/23 07:33:41;;;;;;;11.95;7.45;;;-3.10;99.90;;;;;;5059204;28;20052;-93
2021/11/23 07:36:08;;;;;;;13.38;7.70;;;-3.00;99.90;;;;;;5059467;28;20503;-93
2021/11/23 07:38:35;;;;;;;12.15;7.90;;;-3.10;99.90;;;;;;5060109;28;20066;-93
2021/11/23 07:41:02;;;;;;;15.55;7.90;;;-3.00;99.90;;;;;;5077418;28;20048;-93
2021/11/23 07:43:29;;;;;;;14.35;8.63;;;-2.90;99.90;;;;;;5059454;28;20481;-93
2021/11/23 07:45:55;;;;;;;20.40;10.52;;;-3.00;99.90;;;;;;5061334;28;20070;-93
2021/11/23 07:48:22;;;;;;;25.25;13.75;;;-2.90;99.90;;;;;;5077127;28;20144;-94
2021/11/23 07:50:49;;;;;;;16.00;8.65;;;-2.90;99.90;;;;;;5076866;28;20544;-93
2021/11/23 07:53:16;;;;;;;16.67;10.05;;;-2.90;99.90;;;;;;5059695;28;20136;-93
2021/11/23 07:55:48;;;;;;;17.92;8.55;;;-2.80;99.90;;;;;;5059405;28;20048;-93
2021/11/23 07:58:18;;;;;;;15.88;7.93;;;-2.70;99.90;;;;;;5059116;28;20136;-93
2021/11/23 08:00:45;;;;;;;14.95;8.40;;;-2.60;99.90;;;;;;5061766;28;20481;-93
2021/11/23 08:03:12;;;;;;;15.77;9.45;;;-2.70;99.90;;;;;;5063178;28;20534;-93
2021/11/23 08:05:40;;;;;;;15.65;9.90;;;-2.70;99.90;;;;;;5082722;28;20032;-93
2021/11/23 08:08:09;;;;;;;22.92;11.50;;;-2.70;99.90;;;;;;5066540;28;20064;-93
2021/11/23 08:10:36;;;;;;;26.02;14.52;;;-2.60;99.90;;;;;;5059232;28;20059;-93
2021/11/23 08:13:03;;;;;;;34.20;17.90;;;-2.70;99.90;;;;;;5058683;28;20049;-93
2021/11/23 08:15:30;;;;;;;38.20;22.33;;;-2.80;99.90;;;;;;5058757;28;20131;-93
2021/11/23 08:17:57;;;;;;;33.22;19.75;;;-2.70;99.90;;;;;;5050616;28;20407;-93
2021/11/23 08:20:24;;;;;;;29.63;17.48;;;-2.70;99.90;;;;;;5052764;28;20131;-93
2021/11/23 08:22:51;;;;;;;30.02;16.05;;;-2.60;99.90;;;;;;5048297;28;20079;-93
2021/11/23 08:25:19;;;;;;;26.10;13.88;;;-2.50;99.90;;;;;;5041535;28;20569;-92
2021/11/23 08:27:46;;;;;;;37.53;16.63;;;-2.60;99.90;;;;;;5038686;28;20140;-93
2021/11/23 08:30:13;;;;;;;27.80;14.27;;;-2.70;99.90;;;;;;5039040;28;20132;-92
2021/11/23 08:32:40;;;;;;;27.23;14.18;;;-2.70;99.90;;;;;;5038348;28;20140;-93
2021/11/23 08:35:08;;;;;;;25.20;14.57;;;-2.60;99.90;;;;;;5038250;28;20055;-93
2021/11/23 08:37:35;;;;;;;25.40;13.65;;;-2.50;99.90;;;;;;5038415;28;20144;-93
2021/11/23 08:40:04;;;;;;;33.03;15.52;;;-2.50;99.90;;;;;;5055711;28;20053;-93
2021/11/23 08:42:31;;;;;;;30.30;14.48;;;-2.40;99.90;;;;;;5038029;28;20051;-93
2021/11/23 08:44:58;;;;;;;26.10;14.23;;;-2.30;99.90;;;;;;5055251;28;20055;-93
2021/11/23 08:47:26;;;;;;;25.25;14.00;;;-2.30;99.90;;;;;;5037759;28;20496;-92
2021/11/23 08:49:54;;;;;;;27.60;13.32;;;-2.30;99.90;;;;;;5054147;28;20075;-93
2021/11/23 08:52:21;;;;;;;24.55;13.60;;;-2.20;99.90;;;;;;5037906;28;20445;-93
2021/11/23 08:54:48;;;;;;;37.00;16.58;;;-2.10;99.90;;;;;;5037598;28;20056;-93
2021/11/23 08:57:15;;;;;;;46.58;24.20;;;-2.10;99.90;;;;;;5039290;28;20140;-95
2021/11/23 08:59:43;;;;;;;50.20;24.52;;;-2.20;99.90;;;;;;5038851;28;20179;-94
2021/11/23 09:02:13;;;;;;;37.55;19.40;;;-2.20;99.90;;;;;;5038775;28;20135;-94
2021/11/23 09:04:41;;;;;;;42.63;19.75;;;-2.10;99.90;;;;;;5038485;28;20052;-94
2021/11/23 09:07:12;;;;;;;51.25;21.65;;;-2.10;99.90;;;;;;5037484;28;20049;-94
2021/11/23 09:09:42;;;;;;;37.75;17.73;;;-2.10;99.90;;;;;;5037765;28;20049;-94
2021/11/23 09:12:14;;;;;;;86.40;37.83;;;-2.00;99.90;;;;;;5038685;28;20132;-94
2021/11/23 09:14:41;;;;;;;123.18;57.10;;;-2.00;99.90;;;;;;5037666;28;20136;-94
2021/11/23 09:17:08;;;;;;;59.38;28.42;;;-2.00;99.90;;;;;;5037924;28;20573;-93
2021/11/23 09:19:35;;;;;;;45.25;21.67;;;-1.90;99.90;;;;;;5044942;28;20084;-94
2021/11/23 09:22:03;;;;;;;40.08;16.75;;;-1.90;99.90;;;;;;5060362;28;20067;-92
2021/11/23 09:24:31;;;;;;;35.28;17.52;;;-1.80;99.90;;;;;;5039145;28;20076;-94
2021/11/23 09:26:58;;;;;;;28.40;13.63;;;-1.60;99.90;;;;;;5037237;28;20076;-93
2021/11/23 09:29:25;;;;;;;28.48;12.85;;;-1.50;99.90;;;;;;5054390;28;20100;-93
2021/11/23 09:31:52;;;;;;;42.15;17.83;;;-1.30;99.90;;;;;;5037704;28;20553;-94
2021/11/23 09:34:22;;;;;;;29.30;11.45;;;-1.10;99.90;;;;;;5037254;28;20069;-93
2021/11/23 09:36:54;;;;;;;50.42;20.25;;;-1.00;99.90;;;;;;5037926;28;20053;-94
2021/11/23 09:39:21;;;;;;;91.93;44.67;;;-0.80;99.90;;;;;;5036742;28;20394;-93
2021/11/23 09:41:48;;;;;;;67.10;30.25;;;-0.70;99.90;;;;;;5036869;28;20072;-93
2021/11/23 09:44:15;;;;;;;45.53;20.60;;;-0.60;99.90;;;;;;5037067;28;20227;-92
2021/11/23 09:46:42;;;;;;;39.55;18.15;;;-0.40;99.90;;;;;;5046695;28;20132;-92
2021/11/23 09:49:09;;;;;;;27.25;11.98;;;-0.20;99.90;;;;;;5050589;28;20057;-92
2021/11/23 09:51:38;;;;;;;30.90;15.35;;;0.00;99.90;;;;;;5036797;28;20486;-91
2021/11/23 09:54:08;;;;;;;67.10;37.72;;;0.20;99.90;;;;;;5036690;28;20072;-91
2021/11/23 09:56:38;;;;;;;34.28;20.75;;;0.60;99.90;;;;;;5036143;28;20150;-91
2021/11/23 09:59:10;;;;;;;19.70;10.70;;;1.40;99.90;;;;;;5036898;28;20088;-90
2021/11/23 10:01:54;;;;;;;23.67;14.80;;;1.90;99.90;;;;;;5036521;28;20051;-91
2021/11/23 10:04:24;;;;;;;13.90;6.13;;;2.10;99.90;;;;;;5036872;28;20053;-91
2021/11/23 10:06:57;;;;;;;17.83;4.57;;;2.10;99.90;;;;;;5036594;28;20049;-91
2021/11/23 10:09:40;;;;;;;21.02;11.20;;;2.40;99.90;;;;;;5036744;28;20404;-91
2021/11/23 10:12:26;;;;;;;13.82;7.05;;;2.80;99.90;;;;;;5037404;28;20049;-90
2021/11/23 10:15:12;;;;;;;13.02;3.45;;;4.30;99.90;;;;;;5041037;28;20549;-89
2021/11/23 10:17:48;;;;;;;9.15;2.38;;;4.40;99.90;;;;;;5068691;28;20136;-88
2021/11/23 10:20:36;;;;;;;10.00;4.90;;;3.90;99.90;;;;;;5055894;28;20044;-89
2021/11/23 10:23:29;;;;;;;9.95;2.83;;;4.10;99.90;;;;;;5056170;28;20526;-88
2021/11/23 10:26:17;;;;;;;10.55;3.45;;;4.50;99.90;;;;;;5052335;28;20415;-88
2021/11/23 10:28:47;;;;;;;6.15;2.40;;;4.30;99.90;;;;;;5055859;28;20461;-88
2021/11/23 10:31:15;;;;;;;5.90;2.60;;;4.10;99.90;;;;;;5055719;28;20488;-88
2021/11/23 10:33:43;;;;;;;9.82;3.60;;;4.40;99.90;;;;;;5056513;28;20056;-88
2021/11/23 10:36:15;;;;;;;17.50;4.45;;;4.80;99.90;;;;;;5087269;28;20108;-88
2021/11/23 10:38:42;;;;;;;12.32;5.30;;;5.20;99.90;;;;;;5067489;28;20052;-89
2021/11/23 10:41:15;;;;;;;30.58;11.18;;;5.60;99.90;;;;;;5056641;28;20124;-89
2021/11/23 10:43:43;;;;;;;32.67;12.88;;;7.70;99.90;;;;;;5058252;28;20052;-90
2021/11/23 10:46:19;;;;;;;41.63;14.80;;;9.90;99.90;;;;;;5075105;28;20095;-90
2021/11/23 10:49:00;;;;;;;31.52;13.02;;;10.80;99.90;;;;;;5056315;28;20408;-90
2021/11/23 10:51:38;;;;;;;44.20;16.23;;;11.40;99.90;;;;;;5055737;28;20056;-89
2021/11/23 10:54:17;;;;;;;20.38;8.00;;;11.30;99.90;;;;;;5055920;28;20063;-89
2021/11/23 10:56:58;;;;;;;20.27;9.20;;;11.10;99.90;;;;;;5056129;28;20052;-89
2021/11/23 10:59:29;;;;;;;25.35;10.38;;;11.00;99.90;;;;;;5055654;28;20049;-89
2021/11/23 11:01:57;;;;;;;28.13;10.18;;;10.90;99.90;;;;;;5073188;28;20060;-89
2021/11/23 11:04:27;;;;;;;17.98;7.30;;;11.00;99.90;;;;;;5055376;28;20102;-89
2021/11/23 11:06:56;;;;;;;25.08;8.00;;;10.90;99.90;;;;;;5055520;28;20080;-89
2021/11/23 11:09:25;;;;;;;14.43;5.55;;;10.40;99.90;;;;;;5055445;28;20049;-88
2021/11/23 11:11:53;;;;;;;17.83;4.10;;;9.80;99.90;;;;;;5054391;28;20150;-89
2021/11/23 11:14:21;;;;;;;9.38;3.30;;;9.50;99.90;;;;;;5073031;28;20144;-89
2021/11/23 11:16:48;;;;;;;12.82;3.72;;;8.90;99.90;;;;;;5055177;28;20059;-89
2021/11/23 11:19:16;;;;;;;5.88;2.22;;;8.60;99.90;;;;;;5054900;28;20048;-89
2021/11/23 11:21:49;;;;;;;6.40;2.85;;;8.30;99.90;;;;;;5055546;28;20102;-88
2021/11/23 11:24:44;;;;;;;7.05;3.10;;;8.00;99.90;;;;;;5055316;28;20412;-89
2021/11/23 11:27:29;;;;;;;11.88;2.45;;;7.70;99.90;;;;;;5055135;28;20059;-88
2021/11/23 11:30:31;;;;;;;8.65;2.75;;;7.10;99.90;;;;;;5057896;28;20053;-88
2021/11/23 11:33:04;;;;;;;19.15;8.93;;;7.00;99.90;;;;;;5058984;28;20131;-88
2021/11/23 11:35:41;;;;;;;16.27;6.60;;;7.20;99.90;;;;;;5058932;28;20048;-87
2021/11/23 11:38:31;;;;;;;19.30;6.82;;;7.40;99.90;;;;;;5058802;28;20373;-88
2021/11/23 11:41:07;;;;;;;20.73;7.45;;;7.70;99.90;;;;;;5058823;28;20476;-88
2021/11/23 11:43:39;;;;;;;26.77;7.43;;;7.90;99.90;;;;;;5058551;28;20142;-88
2021/11/23 11:46:08;;;;;;;22.75;7.63;;;7.90;99.90;;;;;;5058660;28;20492;-88
2021/11/23 11:48:38;;;;;;;20.75;6.80;;;8.00;99.90;;;;;;5058544;28;20063;-88
2021/11/23 11:51:09;;;;;;;22.00;7.07;;;7.90;99.90;;;;;;5081607;28;20049;-88
2021/11/23 11:53:42;;;;;;;19.48;6.72;;;7.80;99.90;;;;;;5085342;28;20483;-88
2021/11/23 11:56:10;;;;;;;20.85;8.13;;;7.70;99.90;;;;;;5058684;28;20102;-88
2021/11/23 11:58:55;;;;;;;18.20;6.65;;;7.70;99.90;;;;;;5058192;28;20055;-88
2021/11/23 12:01:24;;;;;;;25.08;7.32;;;7.60;99.90;;;;;;5075904;28;20554;-88
2021/11/23 12:04:15;;;;;;;19.67;6.95;;;7.80;99.90;;;;;;5058456;28;20052;-88
2021/11/23 12:06:54;;;;;;;17.35;6.63;;;7.80;99.90;;;;;;5075864;28;20108;-87
2021/11/23 12:09:26;;;;;;;20.65;7.57;;;7.90;99.90;;;;;;5058189;28;20053;-88
2021/11/23 12:11:55;;;;;;;18.15;6.45;;;7.80;99.90;;;;;;5058419;28;20112;-88
2021/11/23 12:14:26;;;;;;;11.50;4.47;;;7.80;99.90;;;;;;5075570;28;20052;-88
2021/11/23 12:17:23;;;;;;;9.63;3.55;;;7.60;99.90;;;;;;5058257;28;20052;-88
2021/11/23 12:20:06;;;;;;;9.98;4.00;;;7.30;99.90;;;;;;5071532;28;20097;-88
2021/11/23 12:22:46;;;;;;;26.70;7.53;;;7.40;99.90;;;;;;5058004;28;20045;-88
2021/11/23 12:25:18;;;;;;;24.30;11.18;;;7.30;99.90;;;;;;5057892;28;20133;-88
2021/11/23 12:27:48;;;;;;;15.50;8.65;;;7.10;99.90;;;;;;5058219;28;20492;-87
2021/11/23 12:30:18;;;;;;;57.83;29.85;;;7.30;99.90;;;;;;5057756;28;20048;-88
2021/11/23 12:32:46;;;;;;;33.50;17.50;;;7.20;99.90;;;;;;5058096;28;20048;-88
2021/11/23 12:35:16;;;;;;;18.00;6.60;;;7.20;99.90;;;;;;5057776;28;20054;-88
2021/11/23 12:37:47;;;;;;;12.50;4.57;;;7.00;99.90;;;;;;5058019;28;20416;-87
2021/11/23 12:40:24;;;;;;;11.13;4.00;;;6.90;99.90;;;;;;5074006;28;20044;-87
2021/11/23 12:42:53;;;;;;;16.80;4.80;;;7.10;99.90;;;;;;5057794;28;20555;-87
2021/11/23 12:45:33;;;;;;;10.15;4.40;;;7.30;99.90;;;;;;5057774;28;20413;-87
2021/11/23 12:48:05;;;;;;;21.52;6.65;;;7.30;99.90;;;;;;5057836;28;20048;-87